Time;durP1;ratioP1;P1;durP2;ratioP2;P2;SDS_P1;SDS_P2;PMS_P1;PMS_P2;Temp;Humidity;BMP_temperature;BMP_pressure;BME280_temperature;BME280_humidity;BME280_pressure;Samples;Min_cycle;Max_cycle;Signal;HPM_P1;HPM_P2
2022/12/27 00:01:19;;;;;;;24.05;4.15;;;7.30;34.20;;;;;;5030959;28;20049;-68
2022/12/27 00:03:45;;;;;;;16.20;3.58;;;7.30;26.20;;;;;;5030900;28;20033;-68
2022/12/27 00:06:14;;;;;;;23.40;4.25;;;7.00;9.40;;;;;;5028999;28;20045;-68
2022/12/27 00:08:41;;;;;;;19.20;3.97;;;6.90;1.00;;;;;;5026066;28;20052;-68
2022/12/27 00:11:12;;;;;;;16.67;3.75;;;7.00;1.70;;;;;;5031033;28;20483;-67
2022/12/27 00:13:39;;;;;;;22.00;3.63;;;7.10;23.00;;;;;;5023611;28;20041;-67
2022/12/27 00:16:13;;;;;;;16.30;3.83;;;7.50;71.90;;;;;;5031318;28;20406;-67
2022/12/27 00:18:39;;;;;;;17.75;3.70;;;7.30;76.90;;;;;;5029817;28;20526;-67
2022/12/27 00:21:06;;;;;;;24.55;4.15;;;7.40;80.10;;;;;;5031079;28;20117;-67
2022/12/27 00:23:35;;;;;;;23.05;5.00;;;7.60;76.80;;;;;;5026173;28;20067;-67
2022/12/27 00:26:09;;;;;;;18.48;3.58;;;7.60;77.40;;;;;;5012944;28;20133;-67
2022/12/27 00:28:35;;;;;;;20.38;3.95;;;7.60;63.50;;;;;;5028392;28;20123;-68
2022/12/27 00:31:01;;;;;;;23.92;4.18;;;7.50;52.60;;;;;;5031762;28;20033;-68
2022/12/27 00:33:28;;;;;;;15.85;4.15;;;7.60;46.80;;;;;;5030145;28;20033;-68
2022/12/27 00:35:54;;;;;;;18.30;3.70;;;7.50;43.30;;;;;;5031736;28;20038;-68
2022/12/27 00:38:20;;;;;;;19.35;4.05;;;7.40;38.30;;;;;;5030127;28;20498;-68
2022/12/27 00:40:46;;;;;;;22.85;3.63;;;7.20;38.70;;;;;;5011390;28;20050;-67
2022/12/27 00:43:12;;;;;;;21.25;4.00;;;7.30;54.10;;;;;;5027282;28;20083;-68
2022/12/27 00:45:37;;;;;;;23.15;4.45;;;7.10;68.00;;;;;;5031195;28;20041;-67
2022/12/27 00:48:03;;;;;;;30.15;4.20;;;7.20;96.20;;;;;;5030615;28;20475;-67
2022/12/27 00:50:29;;;;;;;16.42;3.72;;;7.50;99.90;;;;;;5029130;28;20041;-67
2022/12/27 00:52:54;;;;;;;26.60;5.00;;;7.60;99.90;;;;;;5030644;28;20076;-67
2022/12/27 00:55:20;;;;;;;19.05;3.95;;;7.60;99.90;;;;;;5028784;28;20037;-67
2022/12/27 00:57:45;;;;;;;20.45;4.28;;;7.40;99.90;;;;;;5030054;28;20125;-67
2022/12/27 01:00:12;;;;;;;24.40;4.22;;;7.40;99.90;;;;;;5030232;28;20388;-67
2022/12/27 01:02:37;;;;;;;24.20;4.20;;;7.40;99.90;;;;;;5031558;28;20094;-67
2022/12/27 01:05:03;;;;;;;24.23;4.38;;;7.60;99.90;;;;;;5029873;28;20037;-67
2022/12/27 01:07:29;;;;;;;19.05;4.32;;;7.50;99.90;;;;;;5030943;28;20042;-67
2022/12/27 01:09:54;;;;;;;19.75;3.75;;;7.50;99.90;;;;;;5030403;28;20037;-67
2022/12/27 01:12:20;;;;;;;18.73;3.33;;;7.40;99.90;;;;;;5031047;28;20052;-67
2022/12/27 01:14:45;;;;;;;17.63;3.25;;;7.20;94.60;;;;;;5029383;28;20478;-67
2022/12/27 01:17:11;;;;;;;20.73;3.50;;;7.10;78.80;;;;;;5031466;28;20566;-67
2022/12/27 01:19:37;;;;;;;24.73;3.55;;;7.00;86.00;;;;;;5028446;28;20068;-68
2022/12/27 01:22:04;;;;;;;14.77;3.60;;;7.10;90.70;;;;;;5030175;28;20049;-67
2022/12/27 01:24:30;;;;;;;12.30;3.22;;;6.90;93.70;;;;;;5030083;28;20045;-68
2022/12/27 01:26:55;;;;;;;20.27;3.70;;;6.90;91.50;;;;;;5030240;28;20088;-68
2022/12/27 01:29:21;;;;;;;23.25;3.83;;;6.70;90.80;;;;;;5029150;28;20045;-68
2022/12/27 01:31:48;;;;;;;20.63;4.50;;;6.80;92.10;;;;;;5029674;28;20041;-68
2022/12/27 01:34:15;;;;;;;18.70;4.20;;;6.60;84.30;;;;;;5029946;28;20502;-68
2022/12/27 01:36:41;;;;;;;21.00;4.45;;;6.30;96.00;;;;;;5029981;28;20037;-68
2022/12/27 01:39:07;;;;;;;21.65;4.25;;;6.50;99.90;;;;;;5031390;28;20083;-67
2022/12/27 01:47:36;;;;;;;26.38;4.07;;;7.40;99.90;;;;;;5026575;28;20430;-67
2022/12/27 01:50:11;;;;;;;16.10;3.50;;;7.40;99.90;;;;;;5030876;28;20451;-67
2022/12/27 01:52:51;;;;;;;26.05;4.22;;;7.30;99.90;;;;;;5033166;28;20037;-67
2022/12/27 01:55:26;;;;;;;18.77;3.38;;;7.20;99.90;;;;;;5030422;28;20100;-67
2022/12/27 01:57:55;;;;;;;18.85;4.00;;;7.30;99.90;;;;;;5028281;28;20369;-67
2022/12/27 02:00:21;;;;;;;23.02;3.72;;;7.20;99.90;;;;;;5033308;28;20072;-67
2022/12/27 02:02:48;;;;;;;23.33;4.00;;;6.70;99.90;;;;;;5033038;28;20042;-67
2022/12/27 02:05:15;;;;;;;20.33;4.40;;;6.70;99.90;;;;;;5031672;28;20049;-67
2022/12/27 02:08:05;;;;;;;32.72;5.00;;;7.00;99.90;;;;;;5028403;28;20042;-68
2022/12/27 02:10:31;;;;;;;23.90;4.55;;;6.70;99.90;;;;;;5027168;28;20045;-67
2022/12/27 02:12:58;;;;;;;15.73;3.63;;;6.80;99.90;;;;;;5033055;28;20081;-67
2022/12/27 02:15:23;;;;;;;24.55;4.10;;;6.30;99.90;;;;;;5033587;28;20052;-68
2022/12/27 02:17:49;;;;;;;24.02;4.43;;;6.10;99.90;;;;;;5032532;28;20151;-67
2022/12/27 02:20:22;;;;;;;44.72;5.10;;;6.50;99.90;;;;;;5033193;28;20050;-67
2022/12/27 02:26:28;;;;;;;21.83;4.38;;;6.80;1.00;;;;;;5032862;28;20067;-66
2022/12/27 02:29:06;;;;;;;22.75;4.03;;;6.90;1.00;;;;;;5033591;28;20037;-67
2022/12/27 02:31:46;;;;;;;22.75;4.57;;;7.20;1.00;;;;;;5031492;28;20084;-67
2022/12/27 02:34:26;;;;;;;24.23;4.18;;;7.10;1.00;;;;;;5031597;28;20044;-67
2022/12/27 02:36:59;;;;;;;27.67;4.03;;;7.00;1.00;;;;;;5033779;28;20033;-66
2022/12/27 02:39:26;;;;;;;17.35;4.07;;;7.40;1.00;;;;;;5024709;28;20103;-67
2022/12/27 02:53:03;;;;;;;;;;;7.50;99.90;;;;;;5029359;28;20038;-67
2022/12/27 02:57:07;;;;;;;26.20;4.53;;;7.60;99.90;;;;;;5032994;28;19924;-67
2022/12/27 02:58:56;;;;;;;16.35;3.10;;;7.60;99.90;;;;;;5031244;28;20096;-66
2022/12/27 03:04:51;;;;;;;28.92;4.03;;;7.20;99.90;;;;;;5022431;28;20518;-67
2022/12/27 03:07:36;;;;;;;26.65;4.45;;;7.30;99.90;;;;;;5029936;28;20088;-67
2022/12/27 03:16:30;;;;;;;26.45;3.97;;;7.10;99.90;;;;;;5018050;28;20053;-67
2022/12/27 03:33:11;;;;;;;22.45;4.53;;;7.30;99.90;;;;;;5031302;28;20414;-67
2022/12/27 03:33:22;;;;;;;24.25;4.18;;;7.20;99.90;;;;;;5031293;28;20108;-66
2022/12/27 03:39:26;;;;;;;21.75;4.72;;;7.00;99.90;;;;;;5028311;28;20080;-66
2022/12/27 03:44:41;;;;;;;31.40;4.57;;;7.30;99.90;;;;;;5030527;28;20426;-67
2022/12/27 03:47:20;;;;;;;25.70;4.82;;;7.30;99.90;;;;;;5031847;28;20052;-67
2022/12/27 03:50:14;;;;;;;26.95;5.53;;;7.00;99.90;;;;;;5031629;28;20049;-67
2022/12/27 03:52:42;;;;;;;23.02;5.75;;;7.20;99.90;;;;;;5028439;28;20069;-67
2022/12/27 03:55:09;;;;;;;22.83;4.78;;;6.90;99.90;;;;;;5031108;28;20048;-67
2022/12/27 03:57:35;;;;;;;29.40;5.22;;;7.20;99.90;;;;;;5014327;28;20068;-67
2022/12/27 04:00:01;;;;;;;25.77;4.57;;;6.90;99.90;;;;;;5027903;28;20053;-67
2022/12/27 04:02:27;;;;;;;28.45;5.15;;;6.90;1.00;;;;;;5027444;28;20041;-67
2022/12/27 04:04:52;;;;;;;23.77;4.70;;;7.20;1.00;;;;;;5026730;28;20045;-67
2022/12/27 04:07:18;;;;;;;26.45;4.80;;;7.20;1.00;;;;;;5031314;28;20041;-66
2022/12/27 04:37:06;;;;;;;29.33;4.72;;;7.20;99.90;;;;;;5030168;28;20095;-67
2022/12/27 04:39:32;;;;;;;23.67;4.07;;;7.30;99.90;;;;;;5031541;28;20486;-66
2022/12/27 04:56:03;;;;;;;24.33;3.65;;;7.30;7.20;;;;;;5031819;28;20180;-66
2022/12/27 04:58:29;;;;;;;17.10;3.85;;;7.20;1.00;;;;;;5030877;28;20033;-66
2022/12/27 05:02:02;;;;;;;20.42;3.90;;;7.20;1.00;;;;;;5012452;28;20547;-67
2022/12/27 05:03:45;;;;;;;17.83;4.10;;;7.20;1.00;;;;;;5030796;28;20049;-67
2022/12/27 05:06:10;;;;;;;16.80;4.35;;;7.30;1.00;;;;;;5029943;28;20052;-67
2022/12/27 05:14:08;;;;;;;12.90;3.40;;;7.10;1.00;;;;;;5029791;28;20530;-67
2022/12/27 05:16:37;;;;;;;19.73;4.10;;;7.00;1.00;;;;;;5025846;28;20304;-67
2022/12/27 05:19:04;;;;;;;27.25;4.38;;;7.00;1.00;;;;;;5029973;28;20045;-67
2022/12/27 05:21:29;;;;;;;22.75;4.05;;;6.80;1.00;;;;;;5030525;28;20045;-67
2022/12/27 05:26:39;;;;;;;26.73;4.93;;;6.80;1.00;;;;;;5030270;28;20119;-67
2022/12/27 05:29:06;;;;;;;18.15;3.90;;;6.90;1.00;;;;;;5033295;28;20030;-67
2022/12/27 05:31:31;;;;;;;23.98;4.25;;;7.00;1.00;;;;;;5014797;28;20034;-67
2022/12/27 05:33:57;;;;;;;18.65;3.47;;;7.10;1.00;;;;;;5030989;28;20038;-67
2022/12/27 05:36:24;;;;;;;21.33;4.13;;;7.10;1.00;;;;;;5032651;28;20064;-66
2022/12/27 05:38:50;;;;;;;16.75;3.78;;;7.00;1.00;;;;;;5034350;28;20076;-67
2022/12/27 05:41:15;;;;;;;14.90;3.35;;;7.10;1.00;;;;;;5034050;28;20433;-66
2022/12/27 05:43:41;;;;;;;17.52;3.70;;;7.10;1.00;;;;;;5031777;28;20095;-66
2022/12/27 05:46:09;;;;;;;18.50;3.25;;;7.10;1.00;;;;;;5032880;28;20041;-67
2022/12/27 05:48:36;;;;;;;20.95;3.75;;;7.10;1.00;;;;;;5033383;28;20041;-67
2022/12/27 05:51:16;;;;;;;13.77;3.95;;;7.10;1.00;;;;;;5033718;28;20048;-67
2022/12/27 05:53:42;;;;;;;20.15;3.83;;;6.90;1.00;;;;;;5035023;28;20415;-67
2022/12/27 05:56:12;;;;;;;19.60;4.25;;;6.90;1.00;;;;;;5032186;28;20036;-67
2022/12/27 05:58:37;;;;;;;17.75;3.42;;;6.90;1.00;;;;;;5033062;28;20041;-67
2022/12/27 06:01:07;;;;;;;21.23;4.18;;;6.80;1.00;;;;;;5023485;28;20383;-67
2022/12/27 06:03:33;;;;;;;21.65;3.55;;;6.80;1.00;;;;;;5023764;28;20041;-67
2022/12/27 06:06:00;;;;;;;26.23;5.05;;;6.70;1.00;;;;;;5034605;28;20164;-67
2022/12/27 06:08:26;;;;;;;23.38;4.18;;;6.90;1.00;;;;;;5033131;28;20500;-67
2022/12/27 06:11:07;;;;;;;22.80;4.03;;;6.80;10.70;;;;;;5025059;28;20034;-66
2022/12/27 06:13:33;;;;;;;20.27;3.97;;;6.90;27.00;;;;;;5034264;28;20038;-67
2022/12/27 06:16:00;;;;;;;21.90;4.43;;;6.80;54.60;;;;;;5033646;28;20041;-67
2022/12/27 06:18:28;;;;;;;25.95;5.50;;;6.90;92.00;;;;;;5030810;28;20042;-66
2022/12/27 06:20:54;;;;;;;19.02;3.70;;;6.70;99.90;;;;;;5030792;28;20486;-66
2022/12/27 06:23:19;;;;;;;20.50;4.68;;;6.70;99.90;;;;;;5032692;28;20075;-67
2022/12/27 06:25:45;;;;;;;25.33;4.85;;;6.90;99.90;;;;;;5032887;28;20486;-67
2022/12/27 06:28:10;;;;;;;20.95;4.25;;;6.80;99.90;;;;;;5030554;28;20398;-67
2022/12/27 06:30:36;;;;;;;22.27;4.20;;;6.80;99.90;;;;;;5033140;28;20376;-66
2022/12/27 06:33:01;;;;;;;25.77;4.63;;;6.70;99.90;;;;;;5031958;28;20065;-66
2022/12/27 06:35:27;;;;;;;20.48;4.43;;;6.90;99.90;;;;;;5030129;28;20036;-67
2022/12/27 06:37:52;;;;;;;23.33;4.18;;;6.60;99.90;;;;;;5033872;28;20047;-66
2022/12/27 06:40:20;;;;;;;28.48;4.13;;;6.60;99.90;;;;;;5033764;28;20040;-66
2022/12/27 06:42:46;;;;;;;23.02;4.38;;;6.90;99.90;;;;;;5033993;28;20041;-67
2022/12/27 06:45:11;;;;;;;24.95;4.40;;;6.80;99.90;;;;;;5029019;28;20041;-67
2022/12/27 06:47:37;;;;;;;22.38;4.03;;;6.80;99.90;;;;;;5033276;28;20037;-66
2022/12/27 06:50:03;;;;;;;20.98;3.92;;;6.90;99.90;;;;;;5032641;28;20045;-66
2022/12/27 06:52:29;;;;;;;27.75;4.05;;;6.80;99.90;;;;;;5032283;28;20498;-67
2022/12/27 06:54:55;;;;;;;24.83;4.00;;;6.90;99.90;;;;;;5032456;28;20128;-67
2022/12/27 06:57:20;;;;;;;19.58;3.60;;;6.70;99.90;;;;;;5031614;28;20498;-67
2022/12/27 06:59:46;;;;;;;26.75;4.47;;;6.80;99.90;;;;;;5030787;28;20491;-66
2022/12/27 07:02:11;;;;;;;19.95;3.55;;;6.80;99.90;;;;;;5033348;28;20072;-67
2022/12/27 07:04:37;;;;;;;18.83;3.92;;;6.70;99.90;;;;;;5022698;28;20056;-67
2022/12/27 07:07:02;;;;;;;14.77;3.30;;;6.80;80.40;;;;;;5028288;28;20038;-66
2022/12/27 07:09:28;;;;;;;20.80;3.50;;;6.90;35.50;;;;;;5023969;28;20033;-67
2022/12/27 07:11:54;;;;;;;22.38;4.20;;;7.00;13.00;;;;;;5012107;28;20052;-67
2022/12/27 07:14:19;;;;;;;18.67;3.60;;;6.90;1.00;;;;;;5023762;28;20046;-66
2022/12/27 07:16:47;;;;;;;20.77;4.32;;;7.10;1.00;;;;;;5033264;28;20034;-67
2022/12/27 07:19:13;;;;;;;17.75;3.80;;;7.10;1.00;;;;;;5029636;28;20047;-66
2022/12/27 07:21:38;;;;;;;19.55;3.88;;;7.20;1.00;;;;;;5026230;28;20538;-66
2022/12/27 07:24:05;;;;;;;18.77;4.18;;;7.00;1.00;;;;;;5031722;28;20068;-67
2022/12/27 07:26:30;;;;;;;17.52;4.03;;;7.00;1.00;;;;;;5032499;28;20371;-66
2022/12/27 07:28:59;;;;;;;21.60;3.83;;;7.00;1.00;;;;;;5030537;28;20095;-66
2022/12/27 07:31:28;;;;;;;16.55;3.67;;;6.90;1.00;;;;;;5032929;28;20060;-66
2022/12/27 07:33:55;;;;;;;21.35;3.75;;;6.80;1.00;;;;;;5021018;28;20041;-66
2022/12/27 07:36:24;;;;;;;21.67;3.80;;;6.90;1.00;;;;;;5020321;28;20513;-66
2022/12/27 07:38:50;;;;;;;20.95;3.85;;;6.70;14.30;;;;;;5030547;28;20238;-66
2022/12/27 07:41:16;;;;;;;17.73;3.47;;;6.90;25.20;;;;;;5032149;28;20499;-66
2022/12/27 07:43:43;;;;;;;20.60;3.70;;;6.70;35.80;;;;;;5028173;28;20111;-66
2022/12/27 07:46:15;;;;;;;20.92;3.95;;;6.70;39.00;;;;;;5031938;28;20045;-66
2022/12/27 07:48:41;;;;;;;18.50;3.50;;;6.70;27.10;;;;;;5025925;28;20503;-66
2022/12/27 07:51:07;;;;;;;25.25;4.72;;;6.80;36.70;;;;;;5031803;28;20029;-66
2022/12/27 07:53:33;;;;;;;20.35;3.08;;;6.80;32.90;;;;;;5029326;28;20040;-66
2022/12/27 07:56:14;;;;;;;22.85;3.80;;;6.80;37.90;;;;;;5031036;28;20528;-66
2022/12/27 07:58:42;;;;;;;23.80;3.70;;;6.60;48.80;;;;;;5023936;28;20483;-66
2022/12/27 08:01:09;;;;;;;27.58;3.80;;;6.70;72.50;;;;;;5031448;28;20398;-66
2022/12/27 08:03:36;;;;;;;21.92;4.03;;;6.60;93.80;;;;;;5032690;28;20410;-66
2022/12/27 08:06:02;;;;;;;26.20;4.25;;;6.50;99.90;;;;;;5030704;28;20135;-66
2022/12/27 08:08:42;;;;;;;21.40;4.32;;;6.50;99.90;;;;;;5030992;28;20042;-67
2022/12/27 08:11:08;;;;;;;24.05;4.15;;;6.40;99.90;;;;;;5029648;28;20045;-66
2022/12/27 08:13:34;;;;;;;23.80;3.83;;;6.40;99.90;;;;;;5020751;28;20168;-66
2022/12/27 08:16:00;;;;;;;19.58;4.15;;;6.60;99.90;;;;;;5025279;28;20476;-66
2022/12/27 08:18:26;;;;;;;23.45;4.28;;;6.60;99.90;;;;;;5030300;28;20128;-66
2022/12/27 08:20:51;;;;;;;23.08;3.63;;;6.60;99.90;;;;;;5030254;28;20033;-66
2022/12/27 08:23:17;;;;;;;20.67;3.90;;;6.50;99.90;;;;;;5028229;28;20049;-67
2022/12/27 08:25:44;;;;;;;18.92;3.72;;;6.00;99.90;;;;;;5028306;28;20037;-66
2022/12/27 08:28:12;;;;;;;21.83;3.90;;;6.30;99.90;;;;;;5027636;28;20065;-67
2022/12/27 08:30:39;;;;;;;30.08;4.63;;;6.30;99.90;;;;;;5030506;28;20040;-67
2022/12/27 08:33:05;;;;;;;20.92;4.07;;;6.20;99.90;;;;;;5021946;28;20071;-66
2022/12/27 08:35:31;;;;;;;17.80;4.03;;;6.50;99.90;;;;;;5029825;28;20033;-66
2022/12/27 08:37:59;;;;;;;18.20;3.17;;;6.50;99.90;;;;;;5030674;28;20095;-68
2022/12/27 08:40:25;;;;;;;18.67;3.45;;;6.70;99.90;;;;;;5030408;28;20053;-67
2022/12/27 08:42:51;;;;;;;21.83;4.50;;;6.50;99.90;;;;;;5029258;28;20458;-67
2022/12/27 08:45:16;;;;;;;15.73;3.25;;;6.40;99.90;;;;;;5031882;28;20037;-67
2022/12/27 08:47:42;;;;;;;16.88;3.65;;;6.40;99.90;;;;;;5031826;28;20509;-67
2022/12/27 08:50:08;;;;;;;23.73;3.50;;;6.50;99.90;;;;;;5028836;28;20098;-67
2022/12/27 08:52:34;;;;;;;19.10;3.42;;;6.50;99.90;;;;;;5023819;28;20038;-67
2022/12/27 08:55:00;;;;;;;18.02;3.88;;;6.80;99.90;;;;;;5030223;28;20140;-67
2022/12/27 08:57:26;;;;;;;15.68;3.10;;;6.80;99.90;;;;;;5029427;28;20116;-67
2022/12/27 08:59:51;;;;;;;16.35;3.50;;;7.00;99.90;;;;;;5028872;28;20112;-67
2022/12/27 09:02:17;;;;;;;17.25;3.00;;;6.90;99.90;;;;;;5030890;28;20045;-67
2022/12/27 09:04:43;;;;;;;17.10;3.00;;;7.00;99.90;;;;;;5029829;28;20411;-66
2022/12/27 09:07:08;;;;;;;16.35;3.30;;;7.10;99.90;;;;;;5030317;28;20045;-67
2022/12/27 09:09:34;;;;;;;14.25;2.75;;;6.80;99.90;;;;;;5030695;28;20056;-67
2022/12/27 09:11:59;;;;;;;19.90;3.40;;;7.00;99.90;;;;;;5023737;28;20132;-67
2022/12/27 09:14:26;;;;;;;12.32;2.60;;;6.80;99.90;;;;;;5029374;28;20128;-67
2022/12/27 09:16:52;;;;;;;15.38;3.20;;;6.80;99.90;;;;;;5030687;28;20574;-67
2022/12/27 09:19:17;;;;;;;16.83;3.63;;;6.40;99.90;;;;;;5030146;28;20041;-70
2022/12/27 09:21:43;;;;;;;15.88;4.00;;;6.60;99.90;;;;;;5023547;28;20041;-68
2022/12/27 09:24:10;;;;;;;20.83;3.00;;;6.80;99.90;;;;;;5027319;28;20099;-69
2022/12/27 09:26:37;;;;;;;14.65;3.47;;;7.00;99.90;;;;;;5028931;28;20077;-70
2022/12/27 09:29:03;;;;;;;17.38;3.42;;;7.10;99.90;;;;;;5022357;28;20045;-70
2022/12/27 09:31:29;;;;;;;17.00;3.28;;;7.10;99.90;;;;;;5022444;28;20041;-67
2022/12/27 09:33:55;;;;;;;17.17;3.13;;;7.30;99.90;;;;;;5000142;28;20042;-66
2022/12/27 09:36:23;;;;;;;18.50;3.40;;;7.20;99.90;;;;;;5030027;28;20117;-66
2022/12/27 09:38:51;;;;;;;20.00;3.50;;;7.30;99.90;;;;;;5027627;28;20041;-66
2022/12/27 09:41:43;;;;;;;16.55;3.03;;;7.00;99.90;;;;;;5026011;28;20048;-66
2022/12/27 09:44:21;;;;;;;14.35;3.35;;;7.00;99.90;;;;;;5028802;28;20053;-66
2022/12/27 09:47:15;;;;;;;15.60;3.10;;;7.20;99.90;;;;;;5029328;28;20045;-67
2022/12/27 09:49:44;;;;;;;16.95;2.97;;;7.40;99.90;;;;;;5022993;28;20037;-68
2022/12/27 09:52:16;;;;;;;17.73;3.42;;;7.70;99.90;;;;;;5025496;28;20148;-67
2022/12/27 09:54:42;;;;;;;15.02;3.05;;;8.00;99.90;;;;;;5026238;28;20049;-67
2022/12/27 09:57:19;;;;;;;14.43;3.35;;;8.00;99.90;;;;;;5030786;28;20399;-67
2022/12/27 09:59:48;;;;;;;14.77;2.95;;;8.10;99.90;;;;;;5028873;28;20049;-67
2022/12/27 10:02:22;;;;;;;16.92;3.38;;;8.10;99.90;;;;;;5029082;28;20049;-67
2022/12/27 10:04:49;;;;;;;13.45;3.08;;;8.10;99.90;;;;;;5030531;28;20059;-67
2022/12/27 10:07:35;;;;;;;21.58;4.00;;;8.00;99.90;;;;;;5030944;28;20069;-67
2022/12/27 10:10:22;;;;;;;19.60;3.30;;;8.30;99.90;;;;;;5012169;28;20053;-67
2022/12/27 10:13:06;;;;;;;;;;;8.20;99.90;;;;;;5028783;28;20057;-67
2022/12/27 10:15:47;;;;;;;13.07;2.75;;;8.10;82.90;;;;;;5033574;28;19964;-66
2022/12/27 10:18:34;;;;;;;12.88;2.58;;;8.10;64.10;;;;;;5031222;28;20495;-67
2022/12/27 10:21:22;;;;;;;17.92;2.95;;;8.00;47.20;;;;;;5032872;28;20069;-66
2022/12/27 10:24:11;;;;;;;16.35;3.35;;;7.90;21.10;;;;;;5029307;28;20108;-66
2022/12/27 10:26:37;;;;;;;21.15;3.53;;;7.80;41.20;;;;;;5025502;28;20045;-66
2022/12/27 10:29:18;;;;;;;12.95;2.88;;;7.80;55.80;;;;;;5032294;28;20403;-66
2022/12/27 10:31:44;;;;;;;18.38;3.30;;;7.90;41.30;;;;;;5032404;28;20497;-66
2022/12/27 10:34:15;;;;;;;17.95;3.30;;;8.10;91.80;;;;;;5048313;28;20037;-67
2022/12/27 10:36:42;;;;;;;13.32;2.95;;;8.10;99.90;;;;;;5013972;28;20042;-66
2022/12/27 10:39:26;;;;;;;18.98;3.05;;;8.00;99.90;;;;;;5028981;28;20040;-66
2022/12/27 10:42:16;;;;;;;20.05;3.22;;;7.70;99.90;;;;;;5032534;28;20045;-66
2022/12/27 10:44:42;;;;;;;21.17;3.38;;;7.60;99.90;;;;;;5030037;28;20068;-66
2022/12/27 10:47:07;;;;;;;13.75;3.47;;;7.90;99.90;;;;;;5032189;28;20030;-66
2022/12/27 10:49:34;;;;;;;20.00;3.50;;;8.00;99.90;;;;;;5030733;28;21029;-67
2022/12/27 10:52:08;;;;;;;15.70;2.85;;;8.00;99.90;;;;;;5026126;28;20057;-67
2022/12/27 10:54:47;;;;;;;17.70;2.90;;;8.50;99.90;;;;;;5030464;28;20439;-67
2022/12/27 10:57:31;;;;;;;12.43;2.80;;;8.10;99.90;;;;;;5028475;28;20045;-67
2022/12/27 11:00:15;;;;;;;15.70;2.67;;;8.50;99.90;;;;;;5031642;28;20037;-67
2022/12/27 11:02:59;;;;;;;15.75;2.83;;;8.50;99.90;;;;;;5031042;28;20045;-67
2022/12/27 11:05:30;;;;;;;18.05;3.45;;;8.60;99.90;;;;;;5031217;28;20033;-67
2022/12/27 11:07:56;;;;;;;15.98;3.15;;;8.90;99.90;;;;;;5024062;28;20041;-66
2022/12/27 11:10:30;;;;;;;16.05;4.03;;;8.70;99.90;;;;;;5025314;28;20065;-67
2022/12/27 11:13:05;;;;;;;18.30;3.45;;;9.10;99.90;;;;;;5027244;28;20053;-67
2022/12/27 11:15:37;;;;;;;13.80;2.72;;;8.80;99.90;;;;;;5030768;28;20049;-67
2022/12/27 11:18:18;;;;;;;13.35;2.80;;;8.60;99.90;;;;;;5031750;28;20490;-67
2022/12/27 11:20:48;;;;;;;17.40;3.25;;;8.40;99.90;;;;;;5024435;28;20037;-66
2022/12/27 11:23:17;;;;;;;14.93;2.80;;;8.40;99.90;;;;;;5028019;28;20045;-67
2022/12/27 11:25:56;;;;;;;23.50;2.80;;;8.50;99.90;;;;;;5031023;28;20044;-66
2022/12/27 11:28:32;;;;;;;13.50;2.80;;;8.20;99.90;;;;;;5031822;28;20105;-66
2022/12/27 11:31:01;;;;;;;6.90;2.27;;;8.50;99.90;;;;;;5032728;28;20099;-66
2022/12/27 11:33:39;;;;;;;22.83;3.03;;;8.40;99.90;;;;;;5027631;28;20464;-66
2022/12/27 11:36:08;;;;;;;15.65;3.17;;;8.30;99.90;;;;;;5028064;28;20038;-66
2022/12/27 11:38:36;;;;;;;17.67;3.10;;;8.40;99.90;;;;;;5031766;28;20045;-66
2022/12/27 11:41:08;;;;;;;16.35;2.65;;;8.20;99.90;;;;;;5021861;28;20042;-67
2022/12/27 11:44:11;;;;;;;14.35;2.38;;;8.10;99.90;;;;;;5029508;28;20134;-66
2022/12/27 11:46:51;;;;;;;12.98;2.65;;;8.20;1.00;;;;;;5014827;28;20041;-66
2022/12/27 11:49:21;;;;;;;16.58;3.05;;;8.40;1.00;;;;;;5020792;28;20169;-66
2022/12/27 11:52:13;;;;;;;14.70;2.58;;;8.10;1.00;;;;;;5030775;28;20049;-66
2022/12/27 11:55:11;;;;;;;14.63;3.28;;;8.10;1.00;;;;;;5026699;28;20067;-66
2022/12/27 11:58:01;;;;;;;15.32;2.85;;;8.30;1.00;;;;;;5027938;28;20438;-66
2022/12/27 12:00:42;;;;;;;16.25;2.58;;;8.40;1.00;;;;;;5031712;28;20124;-66
2022/12/27 12:03:34;;;;;;;14.77;2.55;;;8.30;1.00;;;;;;5032023;28;20108;-66
2022/12/27 12:06:13;;;;;;;18.23;2.60;;;8.70;1.00;;;;;;5010708;28;20071;-66
2022/12/27 12:09:06;;;;;;;18.25;3.50;;;8.90;1.00;;;;;;5023042;28;20388;-66
2022/12/27 12:11:49;;;;;;;12.52;2.33;;;8.90;1.00;;;;;;5020490;28;20053;-66
2022/12/27 12:14:37;;;;;;;14.68;2.63;;;8.80;99.90;;;;;;5029478;28;20056;-66
2022/12/27 12:17:21;;;;;;;7.78;2.30;;;8.60;99.90;;;;;;5027322;28;20048;-66
2022/12/27 12:20:32;;;;;;;13.20;2.33;;;8.70;99.90;;;;;;5028667;28;20048;-66
2022/12/27 12:23:07;;;;;;;7.78;1.83;;;8.40;99.90;;;;;;5014533;28;20049;-68
2022/12/27 12:25:51;;;;;;;13.57;2.03;;;8.50;99.90;;;;;;5027013;28;20136;-68
2022/12/27 12:28:39;;;;;;;15.45;3.05;;;8.50;99.90;;;;;;5024869;28;20916;-68
2022/12/27 12:31:22;;;;;;;7.45;1.98;;;8.70;99.90;;;;;;5020910;28;20081;-68
2022/12/27 12:34:19;;;;;;;10.90;2.10;;;8.60;99.90;;;;;;5016432;28;20045;-69
2022/12/27 12:36:54;;;;;;;7.20;2.22;;;8.60;99.90;;;;;;5024007;28;20085;-66
2022/12/27 12:39:45;;;;;;;11.77;2.90;;;8.40;99.90;;;;;;5023413;28;20041;-66
2022/12/27 12:42:19;;;;;;;20.10;2.60;;;8.30;99.90;;;;;;5025264;28;20053;-66
2022/12/27 12:45:15;;;;;;;6.65;1.80;;;8.40;99.90;;;;;;5026214;28;20513;-66
2022/12/27 12:48:04;;;;;;;7.55;1.73;;;8.50;1.00;;;;;;5028831;28;20124;-66
2022/12/27 12:51:14;;;;;;;18.42;3.17;;;8.80;99.90;;;;;;5032469;28;20091;-66
2022/12/27 12:53:52;;;;;;;10.43;2.17;;;8.90;1.00;;;;;;5029397;28;20034;-65
2022/12/27 12:56:50;;;;;;;9.88;2.08;;;8.60;1.00;;;;;;5028202;28;20037;-66
2022/12/27 12:59:40;;;;;;;24.50;2.60;;;8.80;99.90;;;;;;5024607;28;20049;-66
2022/12/27 13:02:26;;;;;;;9.73;2.00;;;8.60;99.90;;;;;;5026376;28;20037;-66
2022/12/27 13:05:01;;;;;;;;;;;8.90;1.00;;;;;;5024666;28;20547;-66
2022/12/27 13:07:39;;;;;;;5.93;2.13;;;8.90;1.00;;;;;;5025418;28;19932;-68
2022/12/27 13:10:46;;;;;;;15.70;3.03;;;8.70;1.00;;;;;;5022647;28;20052;-69
2022/12/27 13:13:49;;;;;;;6.07;2.20;;;8.20;1.00;;;;;;5032715;28;20058;-69
2022/12/27 13:16:32;;;;;;;15.13;3.58;;;8.30;1.00;;;;;;5030882;28;20280;-65
2022/12/27 13:19:16;;;;;;;17.38;3.15;;;8.20;1.00;;;;;;5018823;28;20042;-66
2022/12/27 13:22:15;;;;;;;11.18;3.45;;;8.20;34.70;;;;;;5027416;28;20053;-66
2022/12/27 13:24:59;;;;;;;14.48;3.22;;;8.00;99.90;;;;;;5027478;28;20120;-66
2022/12/27 13:27:36;;;;;;;19.17;4.30;;;7.90;99.90;;;;;;5021473;28;20042;-68
2022/12/27 13:30:16;;;;;;;15.05;3.58;;;7.90;99.90;;;;;;5022609;28;20534;-67
2022/12/27 13:32:45;;;;;;;18.35;4.20;;;8.10;1.00;;;;;;5028996;28;20414;-66
2022/12/27 13:35:29;;;;;;;14.57;4.05;;;7.90;1.00;;;;;;5027454;28;20037;-67
2022/12/27 13:38:24;;;;;;;15.85;3.60;;;8.10;1.00;;;;;;5025485;28;20056;-67
2022/12/27 13:41:08;;;;;;;14.13;3.95;;;8.40;1.00;;;;;;5016488;28;20041;-66
2022/12/27 13:44:06;;;;;;;13.85;3.70;;;8.30;1.50;;;;;;5005750;28;20034;-66
2022/12/27 13:46:53;;;;;;;13.60;3.30;;;8.30;99.90;;;;;;5011460;28;20504;-66
2022/12/27 13:49:34;;;;;;;13.15;3.90;;;8.60;99.90;;;;;;5032326;28;20421;-66
2022/12/27 13:52:18;;;;;;;13.85;4.03;;;8.10;99.90;;;;;;5015572;28;20053;-66
2022/12/27 13:54:59;;;;;;;24.30;4.78;;;8.60;1.00;;;;;;5023342;28;20053;-66
2022/12/27 13:57:37;;;;;;;14.18;4.30;;;8.60;1.00;;;;;;5033103;28;20069;-67
2022/12/27 14:00:12;;;;;;;16.33;3.40;;;7.80;99.90;;;;;;5026516;28;20077;-66
2022/12/27 14:03:02;;;;;;;13.68;3.83;;;7.80;99.90;;;;;;5024621;28;20034;-66
2022/12/27 14:05:33;;;;;;;14.40;4.63;;;7.80;1.00;;;;;;5032779;28;20049;-66
2022/12/27 14:08:49;;;;;;;18.83;3.78;;;8.00;99.90;;;;;;5028880;28;21819;-67
2022/12/27 14:11:29;;;;;;;18.50;4.20;;;7.70;99.90;;;;;;5028499;28;20033;-67
2022/12/27 14:13:57;;;;;;;18.70;4.18;;;8.40;1.00;;;;;;5046323;28;20131;-66
2022/12/27 14:16:36;;;;;;;16.85;4.72;;;8.30;1.00;;;;;;5027014;28;20042;-67
2022/12/27 14:19:16;;;;;;;20.40;4.95;;;7.40;93.40;;;;;;5031592;28;20103;-67
2022/12/27 14:22:01;;;;;;;12.27;4.07;;;8.30;99.90;;;;;;5025779;28;20076;-68
2022/12/27 14:24:35;;;;;;;16.98;4.88;;;7.70;99.90;;;;;;5028593;28;20037;-66
2022/12/27 14:27:19;;;;;;;15.35;4.57;;;8.20;6.10;;;;;;5027835;28;20045;-66
2022/12/27 14:30:35;;;;;;;13.10;4.65;;;8.20;99.90;;;;;;5032446;28;20048;-67
2022/12/27 14:33:20;;;;;;;17.48;4.70;;;8.30;1.00;;;;;;5027594;28;20117;-66
2022/12/27 14:36:18;;;;;;;17.48;4.72;;;7.50;99.40;;;;;;5033199;28;20037;-66
2022/12/27 14:38:52;;;;;;;20.35;4.57;;;7.70;99.90;;;;;;5028779;28;20033;-67
2022/12/27 14:41:39;;;;;;;17.60;5.20;;;7.40;1.00;;;;;;5031846;28;20517;-66
2022/12/27 14:44:05;;;;;;;17.60;5.00;;;7.80;86.60;;;;;;5025526;28;20133;-67
2022/12/27 14:46:53;;;;;;;12.45;4.30;;;7.50;99.90;;;;;;5024113;28;20500;-66
2022/12/27 14:49:47;;;;;;;12.07;4.53;;;7.50;1.00;;;;;;5032405;28;20045;-66
2022/12/27 14:52:22;;;;;;;18.25;5.45;;;7.40;99.90;;;;;;5027515;28;20046;-66
2022/12/27 14:55:08;;;;;;;14.07;4.83;;;8.50;1.00;;;;;;5031518;28;20037;-66
2022/12/27 14:57:45;;;;;;;18.33;5.75;;;8.60;80.70;;;;;;5028776;28;20108;-66
2022/12/27 15:00:17;;;;;;;16.45;5.82;;;7.50;99.90;;;;;;5027919;28;20099;-65